createdAt,value
2018-06-12T07:27:22.079Z,11.47
2018-06-12T07:29:50.478Z,13.03
2018-06-12T07:32:19.381Z,9.23
2018-06-12T07:34:48.303Z,12.57
2018-06-12T07:37:17.220Z,6.87
2018-06-12T07:39:46.072Z,8.03
2018-06-12T07:42:14.950Z,10.40
2018-06-12T07:44:43.816Z,9.43
2018-06-12T07:47:12.653Z,15.57
2018-06-12T07:49:41.528Z,9.17
2018-06-12T07:52:10.364Z,11.63
2018-06-12T07:54:38.805Z,15.37
2018-06-12T07:57:07.737Z,9.57
2018-06-12T07:59:36.617Z,10.73
2018-06-12T08:02:05.059Z,12.80
2018-06-12T08:04:33.965Z,7.83
2018-06-12T08:07:02.899Z,8.07
2018-06-12T08:09:31.776Z,11.97
2018-06-12T08:12:00.729Z,9.87
2018-06-12T08:14:29.711Z,7.87
2018-06-12T08:16:58.595Z,9.93
2018-06-12T08:19:27.463Z,8.33
2018-06-12T08:21:56.325Z,9.83
2018-06-12T08:24:24.804Z,14.17
2018-06-12T08:26:53.259Z,13.17
2018-06-12T08:29:22.149Z,5.70
2018-06-12T08:31:51.043Z,9.83
2018-06-12T08:34:19.910Z,12.70
2018-06-12T08:36:48.817Z,9.53
2018-06-12T08:39:17.245Z,11.33
2018-06-12T08:41:46.129Z,10.20
2018-06-12T08:44:15.020Z,10.17
2018-06-12T08:46:43.989Z,6.73
2018-06-12T08:49:12.422Z,7.20
2018-06-12T08:51:41.276Z,13.50
2018-06-12T08:54:10.103Z,8.90
2018-06-12T08:56:38.983Z,12.33
2018-06-12T08:59:07.827Z,14.33
2018-06-12T09:01:36.680Z,9.67
2018-06-12T09:04:05.586Z,6.70
2018-06-12T09:06:34.443Z,16.07
2018-06-12T09:09:03.427Z,12.53
2018-06-12T09:11:32.312Z,9.63
2018-06-12T09:14:01.142Z,12.13
2018-06-12T09:16:30.016Z,11.20
2018-06-12T09:18:58.911Z,12.90
2018-06-12T09:21:27.781Z,13.50
2018-06-12T09:23:56.632Z,15.17
2018-06-12T09:26:25.138Z,18.60
2018-06-12T09:28:53.961Z,11.43
2018-06-12T09:31:22.822Z,12.43
2018-06-12T09:33:51.699Z,12.97
2018-06-12T09:36:25.692Z,12.70
2018-06-12T09:38:54.632Z,7.97
2018-06-12T09:41:23.595Z,9.27
2018-06-12T09:43:52.541Z,17.93
2018-06-12T09:46:21.096Z,9.07
2018-06-12T09:48:50.075Z,9.20
2018-06-12T09:51:18.996Z,13.43
2018-06-12T09:53:55.229Z,12.43
2018-06-12T09:56:24.256Z,15.27
2018-06-12T09:58:53.163Z,13.73
2018-06-12T10:01:22.308Z,9.93
2018-06-12T10:03:52.641Z,11.90
2018-06-12T10:06:21.624Z,9.07
2018-06-12T10:08:50.554Z,11.57
2018-06-12T10:11:19.460Z,11.40
2018-06-12T10:13:47.930Z,14.53
2018-06-12T10:16:16.489Z,13.73
2018-06-12T10:18:45.448Z,16.20
2018-06-12T10:21:14.444Z,14.60
2018-06-12T10:23:43.389Z,12.40
2018-06-12T10:26:11.904Z,8.63
2018-06-12T10:28:40.812Z,14.07
2018-06-12T10:31:09.781Z,10.40
2018-06-12T10:33:38.743Z,16.00
2018-06-12T10:36:08.296Z,13.70
2018-06-12T10:38:36.798Z,12.23
2018-06-12T10:41:07.593Z,14.55
2018-06-12T10:43:36.515Z,20.35
2018-06-12T10:46:05.495Z,22.27
2018-06-12T10:48:34.391Z,12.03
2018-06-12T10:51:03.321Z,19.17
2018-06-12T10:53:32.245Z,23.18
2018-06-12T10:56:01.189Z,18.67
2018-06-12T10:58:30.141Z,22.40
2018-06-12T11:00:59.062Z,19.80
2018-06-12T11:03:28.066Z,29.50
2018-06-12T11:05:56.942Z,30.65
2018-06-12T11:08:25.886Z,19.48
2018-06-12T11:10:54.825Z,36.00
2018-06-12T11:13:23.706Z,34.08
2018-06-12T11:15:52.603Z,20.92
2018-06-12T11:18:21.629Z,23.52
2018-06-12T11:20:50.578Z,20.82
2018-06-12T11:23:19.467Z,20.20
2018-06-12T11:25:48.352Z,25.85
2018-06-12T11:28:17.254Z,24.32
2018-06-12T11:30:46.206Z,29.37
2018-06-12T11:33:14.718Z,23.60
2018-06-12T11:35:43.217Z,20.88
2018-06-12T11:38:11.692Z,26.93
2018-06-12T11:40:40.208Z,22.58
2018-06-12T11:43:08.745Z,19.07
2018-06-12T11:45:37.285Z,28.42
2018-06-12T11:48:06.660Z,24.05
2018-06-12T11:50:35.555Z,27.32
2018-06-12T11:53:04.069Z,32.15
2018-06-12T11:55:32.960Z,26.35
2018-06-12T11:58:01.825Z,16.60
2018-06-12T12:00:30.284Z,25.45
2018-06-12T12:02:59.127Z,20.48
2018-06-12T12:05:28.029Z,15.30
2018-06-12T12:07:56.931Z,16.50
2018-06-12T12:10:25.840Z,25.23
2018-06-12T12:12:54.705Z,24.27
2018-06-12T12:15:23.627Z,18.87
2018-06-12T12:17:52.507Z,29.93
2018-06-12T12:20:21.420Z,25.97
2018-06-12T12:22:50.339Z,31.07
2018-06-12T12:25:19.481Z,24.23
2018-06-12T12:27:48.521Z,44.23
2018-06-12T12:30:17.427Z,103.23
2018-06-12T12:32:47.382Z,41.27
2018-06-12T12:35:16.018Z,34.87
2018-06-12T12:37:44.896Z,33.77
2018-06-12T12:40:13.944Z,22.67
2018-06-12T12:42:42.839Z,18.83
2018-06-12T12:45:11.824Z,22.27
2018-06-12T12:47:40.731Z,14.20
2018-06-12T12:50:09.213Z,17.53
2018-06-12T12:52:38.116Z,26.10
2018-06-12T12:55:06.663Z,21.30
2018-06-12T12:57:35.597Z,22.90
2018-06-12T13:00:04.773Z,26.10
2018-06-12T13:02:33.637Z,20.30
2018-06-12T13:05:02.571Z,18.40
2018-06-12T13:07:31.044Z,22.77
2018-06-12T13:09:59.478Z,25.77
2018-06-12T13:12:28.344Z,19.77
2018-06-12T13:14:57.244Z,20.90
2018-06-12T13:17:26.171Z,17.10
2018-06-12T13:19:55.950Z,24.10
2018-06-12T13:22:24.849Z,19.70
2018-06-12T13:24:53.780Z,24.00
2018-06-12T13:27:22.716Z,25.83
2018-06-12T13:29:51.619Z,21.63
2018-06-12T13:32:20.549Z,22.03
2018-06-12T13:34:49.415Z,17.63
2018-06-12T13:37:18.286Z,18.67
2018-06-12T13:39:47.184Z,21.23
2018-06-12T13:42:16.125Z,20.53
2018-06-12T13:44:45.051Z,18.77
2018-06-12T13:47:13.934Z,18.53
2018-06-12T13:49:42.845Z,21.03
2018-06-12T13:52:11.691Z,23.63
2018-06-12T13:54:40.695Z,24.87
2018-06-12T13:57:09.562Z,23.87
2018-06-12T13:59:38.012Z,16.97
2018-06-12T14:02:06.920Z,23.87
2018-06-12T14:04:35.797Z,29.50
2018-06-12T14:07:04.728Z,13.90
2018-06-12T14:09:33.154Z,18.93
2018-06-12T14:12:02.040Z,12.47
2018-06-12T14:14:31.028Z,5.93
2018-06-12T14:16:59.884Z,9.33
2018-06-12T14:19:28.750Z,14.13
2018-06-12T14:21:57.247Z,9.77
2018-06-12T14:24:26.101Z,9.43
2018-06-12T14:26:55.005Z,7.60
2018-06-12T14:29:23.870Z,8.63
2018-06-12T14:31:52.780Z,10.20
2018-06-12T14:34:21.682Z,10.73
2018-06-12T14:36:50.262Z,11.57
2018-06-12T14:39:18.679Z,9.53
2018-06-12T14:41:47.528Z,5.23
2018-06-12T14:44:16.441Z,12.33
2018-06-12T14:46:45.332Z,10.00
2018-06-12T14:49:14.194Z,8.70
2018-06-12T14:51:43.115Z,6.17
2018-06-12T14:54:12.011Z,6.47
2018-06-12T14:56:40.887Z,12.13
2018-06-12T14:59:09.729Z,7.63
2018-06-12T15:01:38.606Z,7.80
2018-06-12T15:04:07.487Z,13.50
2018-06-12T15:06:36.396Z,7.30
2018-06-12T15:09:07.064Z,10.70
2018-06-12T15:11:35.661Z,8.00
2018-06-12T15:14:04.561Z,9.40
2018-06-12T15:16:33.468Z,10.43
2018-06-12T15:19:02.367Z,12.87
2018-06-12T15:21:31.385Z,9.83
2018-06-12T15:24:00.292Z,7.57
2018-06-12T15:26:29.182Z,8.97
2018-06-12T15:28:58.105Z,7.93
2018-06-12T15:31:27.011Z,9.43
2018-06-12T15:33:55.946Z,11.17
2018-06-12T15:36:24.825Z,10.90
2018-06-12T15:38:53.760Z,13.00
2018-06-12T15:41:22.656Z,31.40
2018-06-12T15:43:51.615Z,8.20
2018-06-12T15:46:20.496Z,9.33
2018-06-12T15:48:49.344Z,6.13
2018-06-12T15:51:18.372Z,11.80
2018-06-12T15:53:47.228Z,7.73
2018-06-12T15:56:16.137Z,6.60
2018-06-12T15:58:45.017Z,11.23
2018-06-12T16:01:13.920Z,10.23
2018-06-12T16:03:42.818Z,12.73
2018-06-12T16:06:11.727Z,15.57
2018-06-12T16:08:40.629Z,20.40
2018-06-12T16:11:09.128Z,7.70
2018-06-12T16:13:38.079Z,14.60
2018-06-12T16:16:07.037Z,6.47
2018-06-12T16:18:35.976Z,10.07
2018-06-12T16:21:04.874Z,9.47
2018-06-12T16:23:33.819Z,7.37
2018-06-12T16:26:02.759Z,6.53
2018-06-12T16:28:31.220Z,13.17
2018-06-12T16:31:00.101Z,11.73
2018-06-12T16:33:29.051Z,8.47
2018-06-12T16:35:58.506Z,7.77
2018-06-12T16:38:27.416Z,13.00
2018-06-12T16:40:55.873Z,6.93
2018-06-12T16:43:24.796Z,8.07
2018-06-12T16:45:53.972Z,6.50
2018-06-12T16:48:22.446Z,8.40
2018-06-12T16:50:51.385Z,7.23
2018-06-12T16:53:20.318Z,13.47
2018-06-12T16:55:49.219Z,9.67
2018-06-12T16:58:18.192Z,9.50
2018-06-12T17:00:47.139Z,7.13
2018-06-12T17:03:16.013Z,7.90
2018-06-12T17:05:44.971Z,12.30
2018-06-12T17:08:13.893Z,8.03
2018-06-12T17:10:42.796Z,12.67
2018-06-12T17:13:11.716Z,6.07
2018-06-12T17:15:40.655Z,5.23
2018-06-12T17:18:09.237Z,32.67
2018-06-12T17:20:38.180Z,10.90
2018-06-12T17:23:07.079Z,9.77
2018-06-12T17:25:37.314Z,7.63
2018-06-12T17:28:06.323Z,8.57
2018-06-12T17:30:35.219Z,10.33
2018-06-12T17:33:03.711Z,10.23
2018-06-12T17:35:32.177Z,12.87
2018-06-12T17:38:01.055Z,15.53
2018-06-12T17:40:30.075Z,10.25
2018-06-12T17:42:58.985Z,7.03
2018-06-12T17:45:27.880Z,8.23
2018-06-12T17:47:56.805Z,7.97
2018-06-12T17:50:25.756Z,6.97
2018-06-12T17:52:54.731Z,7.20
2018-06-12T17:55:23.674Z,7.07
2018-06-12T17:57:52.565Z,6.27
2018-06-12T18:00:21.465Z,12.27
2018-06-12T18:02:50.388Z,12.27
2018-06-12T18:05:19.259Z,9.83
2018-06-12T18:07:47.784Z,9.23
2018-06-12T18:10:16.701Z,8.83
2018-06-12T18:12:45.629Z,7.20
2018-06-12T18:15:50.585Z,10.13
2018-06-12T18:18:19.492Z,10.23
2018-06-12T18:20:48.401Z,9.13
2018-06-12T18:23:17.416Z,6.37
2018-06-12T18:25:46.358Z,5.03
2018-06-12T18:28:15.283Z,5.20
2018-06-12T18:30:44.260Z,37.40
2018-06-12T18:33:13.159Z,21.80
2018-06-12T18:35:42.109Z,11.07
2018-06-12T18:38:11.045Z,11.60
2018-06-12T18:40:39.973Z,6.73
2018-06-12T18:43:08.920Z,8.13
2018-06-12T18:45:37.867Z,9.47
2018-06-12T18:48:06.808Z,5.27
2018-06-12T18:50:35.822Z,7.10
2018-06-12T18:53:04.808Z,6.23
2018-06-12T18:55:33.836Z,4.90
2018-06-12T18:58:02.392Z,9.63
2018-06-12T19:00:31.450Z,7.83
2018-06-12T19:03:00.430Z,9.53
2018-06-12T19:05:29.434Z,8.83
2018-06-12T19:07:58.435Z,11.40
2018-06-12T19:10:27.406Z,6.90
2018-06-12T19:12:56.639Z,7.47
2018-06-12T19:15:25.578Z,13.90
2018-06-12T19:17:54.506Z,13.63
2018-06-12T19:20:23.578Z,10.53
2018-06-12T19:22:53.194Z,18.30
2018-06-12T19:25:22.128Z,7.17
2018-06-12T19:27:51.093Z,6.30
2018-06-12T19:30:20.005Z,8.10
2018-06-12T19:32:49.030Z,7.70
2018-06-12T19:35:17.500Z,5.10
2018-06-12T19:37:46.547Z,6.53
2018-06-12T19:40:15.507Z,6.27
2018-06-12T19:42:44.482Z,6.77
2018-06-12T19:45:13.088Z,10.53
2018-06-12T19:47:42.114Z,10.17
2018-06-12T19:50:11.092Z,16.20
2018-06-12T19:52:40.004Z,9.23
2018-06-12T19:55:09.747Z,7.63
2018-06-12T19:57:38.260Z,7.57
2018-06-12T20:00:07.243Z,4.27
2018-06-12T20:02:36.185Z,4.87
2018-06-12T20:05:05.211Z,6.67
2018-06-12T20:07:34.124Z,8.33
2018-06-12T20:10:03.109Z,2.73
2018-06-12T20:12:32.090Z,12.90
2018-06-12T20:15:01.096Z,5.80
2018-06-12T20:17:30.019Z,4.87
2018-06-12T20:19:58.978Z,3.50
2018-06-12T20:22:27.996Z,11.00
2018-06-12T20:24:56.958Z,10.10
2018-06-12T20:27:25.857Z,5.90
2018-06-12T20:29:54.837Z,5.63
2018-06-12T20:32:23.829Z,5.80
2018-06-12T20:34:52.785Z,8.00
2018-06-12T20:37:28.324Z,8.07
2018-06-12T20:39:57.310Z,7.20
2018-06-12T20:42:26.290Z,6.77
2018-06-12T20:44:55.225Z,8.13
2018-06-12T20:47:23.747Z,5.67
2018-06-12T20:49:52.662Z,8.33
2018-06-12T20:52:21.599Z,4.87
2018-06-12T20:54:50.638Z,7.33
2018-06-12T20:57:19.552Z,6.97
2018-06-12T20:59:48.457Z,3.13
2018-06-12T21:02:17.437Z,3.20
2018-06-12T21:04:46.398Z,6.23
2018-06-12T21:07:15.480Z,7.03
2018-06-12T21:09:44.360Z,4.70
2018-06-12T21:12:13.293Z,8.43
2018-06-12T21:14:42.231Z,9.50
2018-06-12T21:17:11.225Z,5.63
2018-06-12T21:19:40.191Z,4.97
2018-06-12T21:22:08.715Z,3.07
2018-06-12T21:24:37.671Z,3.63
2018-06-12T21:27:06.151Z,6.63
2018-06-12T21:29:34.649Z,3.57
2018-06-12T21:32:03.681Z,5.87
2018-06-12T21:34:32.711Z,7.70
2018-06-12T21:37:01.655Z,5.63
2018-06-12T21:39:30.611Z,3.83
2018-06-12T21:41:59.529Z,6.27
2018-06-12T21:44:28.528Z,4.30
2018-06-12T21:46:57.526Z,5.10
2018-06-12T21:49:26.505Z,5.83
2018-06-12T21:51:55.454Z,7.03
2018-06-12T21:54:24.332Z,6.23
2018-06-12T21:56:53.285Z,4.77
2018-06-12T21:59:22.226Z,4.57
2018-06-12T22:02:02.056Z,4.67
2018-06-12T22:04:30.972Z,8.47
2018-06-12T22:06:59.416Z,7.77
2018-06-12T22:09:28.343Z,5.37
2018-06-12T22:11:56.826Z,13.37
2018-06-12T22:14:28.691Z,4.00
2018-06-12T22:16:58.256Z,4.67
2018-06-12T22:19:27.180Z,4.20
2018-06-12T22:21:55.683Z,6.17
2018-06-12T22:24:27.160Z,5.70
2018-06-12T22:26:56.264Z,4.67
2018-06-12T22:29:25.207Z,4.00
2018-06-12T22:31:53.695Z,5.03
2018-06-12T22:34:22.597Z,8.63
2018-06-12T22:36:51.494Z,3.47
2018-06-12T22:39:20.349Z,6.63
2018-06-12T22:41:48.825Z,6.43
2018-06-12T22:44:17.270Z,7.67
2018-06-12T22:46:46.168Z,5.00
2018-06-12T22:49:15.080Z,5.53
2018-06-12T22:51:43.507Z,7.17
2018-06-12T22:54:12.358Z,4.63
2018-06-12T22:56:40.857Z,4.40
2018-06-12T22:59:09.777Z,5.47
2018-06-12T23:01:38.644Z,6.63
2018-06-12T23:04:07.609Z,5.13
2018-06-12T23:06:36.564Z,2.87
2018-06-12T23:09:07.977Z,12.63
2018-06-12T23:11:36.869Z,4.87
2018-06-12T23:14:05.788Z,5.20
2018-06-12T23:16:34.722Z,8.07
2018-06-12T23:19:03.662Z,3.97
2018-06-12T23:22:12.235Z,8.30
2018-06-12T23:24:41.154Z,5.23
2018-06-12T23:27:10.096Z,7.00
2018-06-12T23:29:39.073Z,6.73
2018-06-12T23:32:07.964Z,5.40
2018-06-12T23:34:36.979Z,6.70
2018-06-12T23:37:05.604Z,6.07
2018-06-12T23:39:34.611Z,6.27
2018-06-12T23:42:03.515Z,5.53
2018-06-12T23:44:32.652Z,5.13
2018-06-12T23:47:01.178Z,6.00
2018-06-12T23:49:30.143Z,3.13
2018-06-12T23:51:59.079Z,10.70
2018-06-12T23:54:28.356Z,7.47
2018-06-12T23:56:57.291Z,5.40
2018-06-12T23:59:26.210Z,5.77
